Time;durP1;ratioP1;P1;durP2;ratioP2;P2;SDS_P1;SDS_P2;PMS_P1;PMS_P2;Temp;Humidity;BMP_temperature;BMP_pressure;BME280_temperature;BME280_humidity;BME280_pressure;Samples;Min_cycle;Max_cycle;Signal;HPM_P1;HPM_P2
2021/04/23 00:00:48;;;;;;;10.45;6.15;;;6.60;1.00;;;;;;5075424;28;20220;-63
2021/04/23 00:03:20;;;;;;;15.63;4.72;;;6.60;1.00;;;;;;5075384;28;20719;-64
2021/04/23 00:05:47;;;;;;;11.25;5.25;;;6.50;1.00;;;;;;5075500;28;20249;-64
2021/04/23 00:08:16;;;;;;;13.25;5.28;;;6.60;1.00;;;;;;5075442;28;20187;-64
2021/04/23 00:10:42;;;;;;;16.48;5.03;;;6.60;1.00;;;;;;5075415;28;20577;-64
2021/04/23 00:13:08;;;;;;;12.48;5.72;;;6.60;1.00;;;;;;5075194;28;20188;-64
2021/04/23 00:15:34;;;;;;;12.60;5.40;;;6.60;1.00;;;;;;5075253;28;20183;-64
2021/04/23 00:17:59;;;;;;;16.23;6.20;;;6.50;1.00;;;;;;5075522;28;20177;-64
2021/04/23 00:20:27;;;;;;;10.50;4.87;;;6.50;21.30;;;;;;5074237;28;20984;-64
2021/04/23 00:22:58;;;;;;;12.95;6.07;;;6.40;23.40;;;;;;5075396;28;20324;-64
2021/04/23 00:25:27;;;;;;;11.68;4.82;;;6.50;30.10;;;;;;5075217;28;20181;-64
2021/04/23 00:27:58;;;;;;;13.90;6.88;;;6.50;15.50;;;;;;5074478;28;20610;-64
2021/04/23 00:30:30;;;;;;;12.18;4.40;;;6.40;33.20;;;;;;5075469;28;20530;-64
2021/04/23 00:32:56;;;;;;;15.15;6.57;;;6.40;42.10;;;;;;5075250;28;20733;-64
2021/04/23 00:35:26;;;;;;;12.73;5.37;;;6.60;32.10;;;;;;5075060;28;20212;-64
2021/04/23 00:37:52;;;;;;;9.18;4.93;;;6.60;15.80;;;;;;5075135;28;20949;-64
2021/04/23 00:40:25;;;;;;;15.70;5.22;;;6.60;6.30;;;;;;5074354;28;20180;-64
2021/04/23 00:42:51;;;;;;;11.98;6.10;;;6.60;1.00;;;;;;5075262;28;20161;-62
2021/04/23 00:45:23;;;;;;;9.65;4.85;;;6.50;1.50;;;;;;5074974;28;20176;-64
2021/04/23 00:47:51;;;;;;;15.73;4.65;;;6.50;1.00;;;;;;5075479;28;20203;-64
2021/04/23 00:50:32;;;;;;;15.10;6.13;;;6.40;3.80;;;;;;5075014;28;20173;-64
2021/04/23 00:52:59;;;;;;;18.40;4.60;;;6.50;6.10;;;;;;5074449;28;20203;-64
2021/04/23 00:55:24;;;;;;;9.07;3.88;;;6.40;1.00;;;;;;5074304;28;20283;-65
2021/04/23 00:57:50;;;;;;;8.97;4.80;;;6.40;1.00;;;;;;5073811;28;20271;-63
2021/04/23 01:00:17;;;;;;;9.77;4.47;;;6.40;1.00;;;;;;5074633;28;20269;-63
2021/04/23 01:02:42;;;;;;;17.05;5.72;;;6.40;1.00;;;;;;5074221;28;20208;-62
2021/04/23 01:05:09;;;;;;;12.93;4.20;;;6.40;1.00;;;;;;5074634;28;20494;-62
2021/04/23 01:07:36;;;;;;;12.88;5.35;;;6.40;1.00;;;;;;5074379;28;20306;-62
2021/04/23 01:10:03;;;;;;;10.80;5.25;;;6.30;14.90;;;;;;5074361;28;20215;-62
2021/04/23 01:12:29;;;;;;;11.90;5.60;;;6.50;16.90;;;;;;5073327;28;20211;-63
2021/04/23 01:14:54;;;;;;;10.30;4.60;;;6.60;1.00;;;;;;5072807;28;20218;-64
2021/04/23 01:17:20;;;;;;;12.33;5.40;;;6.60;1.00;;;;;;5073364;28;20691;-65
2021/04/23 01:19:46;;;;;;;12.80;5.47;;;6.70;1.00;;;;;;5056736;28;20184;-63
2021/04/23 01:22:11;;;;;;;10.70;4.50;;;6.80;1.00;;;;;;5074036;28;20291;-63
2021/04/23 01:24:37;;;;;;;10.93;6.03;;;6.60;1.00;;;;;;5073743;28;20393;-63
2021/04/23 01:27:03;;;;;;;10.30;5.10;;;6.60;1.00;;;;;;5073026;28;20313;-63
2021/04/23 01:29:28;;;;;;;9.70;5.30;;;6.40;1.00;;;;;;5073833;28;20730;-63
2021/04/23 01:31:57;;;;;;;11.60;4.60;;;6.50;1.00;;;;;;5073998;28;20974;-63
2021/04/23 01:34:30;;;;;;;11.20;5.05;;;6.60;1.00;;;;;;5072568;28;20198;-63
2021/04/23 01:36:59;;;;;;;15.10;4.63;;;6.60;1.00;;;;;;5073700;28;20518;-63
2021/04/23 01:39:27;;;;;;;10.70;5.13;;;6.50;1.00;;;;;;5073738;28;20242;-63
2021/04/23 01:41:55;;;;;;;11.52;4.60;;;6.50;1.00;;;;;;5072817;28;20215;-63
2021/04/23 01:44:22;;;;;;;10.38;5.85;;;6.50;1.00;;;;;;5073278;28;20191;-63
2021/04/23 01:46:48;;;;;;;12.43;4.53;;;6.40;1.00;;;;;;5073635;28;20176;-63
2021/04/23 01:49:17;;;;;;;12.45;5.72;;;6.50;1.00;;;;;;5073326;28;20190;-63
2021/04/23 01:51:47;;;;;;;10.85;4.57;;;6.60;1.00;;;;;;5073267;28;20184;-63
2021/04/23 01:54:13;;;;;;;12.75;4.55;;;6.70;1.00;;;;;;5073357;28;20188;-63
2021/04/23 01:56:39;;;;;;;6.18;3.65;;;6.60;1.00;;;;;;5073375;28;20262;-63
2021/04/23 01:59:06;;;;;;;9.82;4.68;;;6.60;1.00;;;;;;5074564;28;20199;-63
2021/04/23 02:01:32;;;;;;;9.38;5.00;;;6.70;1.00;;;;;;5075515;28;20629;-63
2021/04/23 02:03:59;;;;;;;8.23;4.60;;;6.70;1.00;;;;;;5075228;28;20179;-63
2021/04/23 02:06:25;;;;;;;12.43;6.30;;;6.70;1.00;;;;;;5074981;28;20184;-63
2021/04/23 02:08:52;;;;;;;8.70;4.32;;;6.70;1.00;;;;;;5073394;28;20204;-63
2021/04/23 02:11:19;;;;;;;13.23;5.65;;;6.80;1.00;;;;;;5073159;28;20507;-63
2021/04/23 02:13:46;;;;;;;11.40;5.00;;;6.70;1.00;;;;;;5072895;28;20184;-63
2021/04/23 02:16:17;;;;;;;8.07;4.80;;;6.80;1.00;;;;;;5072980;28;20619;-63
2021/04/23 02:18:44;;;;;;;10.32;5.03;;;6.70;1.00;;;;;;5073235;28;20180;-63
2021/04/23 02:21:10;;;;;;;18.02;5.22;;;6.70;1.00;;;;;;5073164;28;20208;-64
2021/04/23 02:23:37;;;;;;;16.25;5.32;;;6.70;1.00;;;;;;5072973;28;20619;-64
2021/04/23 02:26:03;;;;;;;6.85;4.35;;;6.70;1.00;;;;;;5071887;28;20188;-64
2021/04/23 02:28:29;;;;;;;12.20;4.68;;;6.70;1.00;;;;;;5071930;28;20237;-64
2021/04/23 02:31:03;;;;;;;7.00;3.40;;;6.60;1.00;;;;;;5072982;28;20192;-64
2021/04/23 02:33:28;;;;;;;13.05;5.25;;;6.60;1.00;;;;;;5072777;28;20169;-64
2021/04/23 02:35:56;;;;;;;10.30;5.07;;;6.60;1.00;;;;;;5071517;28;20636;-64
2021/04/23 02:38:24;;;;;;;13.20;5.00;;;6.70;1.00;;;;;;5072813;28;20169;-64
2021/04/23 02:40:51;;;;;;;10.23;6.53;;;6.70;1.00;;;;;;5071844;28;20239;-64
2021/04/23 02:43:22;;;;;;;14.40;5.90;;;6.70;1.00;;;;;;5072561;28;20695;-64
2021/04/23 02:45:49;;;;;;;12.52;4.03;;;6.70;1.00;;;;;;5072440;28;20184;-64
2021/04/23 02:48:16;;;;;;;10.80;4.68;;;6.70;1.00;;;;;;5072428;28;20169;-64
2021/04/23 02:50:51;;;;;;;11.60;4.35;;;6.90;1.00;;;;;;5073747;28;20210;-64
2021/04/23 02:53:17;;;;;;;9.15;4.90;;;6.70;1.00;;;;;;5076759;28;20176;-64
2021/04/23 02:55:43;;;;;;;12.03;4.83;;;6.70;1.00;;;;;;5076655;28;20190;-64
2021/04/23 02:58:18;;;;;;;14.88;5.47;;;6.70;1.00;;;;;;5077210;28;20425;-64
2021/04/23 03:00:47;;;;;;;9.25;3.95;;;6.80;1.00;;;;;;5076540;28;20636;-64
2021/04/23 03:03:20;;;;;;;11.30;4.32;;;6.80;1.00;;;;;;5076702;28;20176;-64
2021/04/23 03:05:47;;;;;;;12.57;4.95;;;6.80;1.00;;;;;;5074555;28;20543;-64
2021/04/23 03:08:14;;;;;;;14.20;4.88;;;6.80;1.00;;;;;;5076305;28;20195;-63
2021/04/23 03:11:11;;;;;;;11.00;4.85;;;6.70;1.00;;;;;;5076426;28;20617;-63
2021/04/23 03:16:59;;;;;;;13.15;5.22;;;6.70;1.00;;;;;;5039537;28;20218;-64
2021/04/23 03:19:25;;;;;;;16.40;6.00;;;6.70;1.00;;;;;;5056206;28;20271;-64
2021/04/23 03:21:51;;;;;;;9.53;5.27;;;6.60;1.00;;;;;;5056135;28;20298;-64
2021/04/23 03:24:17;;;;;;;8.07;5.05;;;6.70;1.00;;;;;;5055808;28;20617;-64
2021/04/23 03:26:44;;;;;;;8.65;3.80;;;6.60;1.00;;;;;;5055987;28;20195;-64
2021/04/23 03:29:11;;;;;;;9.95;4.20;;;6.70;1.00;;;;;;5056109;28;20251;-64
2021/04/23 03:31:37;;;;;;;7.10;3.47;;;6.70;1.00;;;;;;5056121;28;20177;-64
2021/04/23 03:34:05;;;;;;;8.50;4.73;;;6.60;1.00;;;;;;5054541;28;20266;-63
2021/04/23 03:36:33;;;;;;;10.13;4.25;;;6.60;1.00;;;;;;5055987;28;20902;-64
2021/04/23 03:38:59;;;;;;;13.02;4.50;;;6.60;1.00;;;;;;5054689;28;20196;-63
2021/04/23 03:41:29;;;;;;;8.97;4.13;;;6.60;1.00;;;;;;5054893;28;20204;-63
2021/04/23 03:43:57;;;;;;;16.40;4.45;;;6.70;1.00;;;;;;5055646;28;20805;-64
2021/04/23 03:46:23;;;;;;;7.60;3.55;;;6.60;1.00;;;;;;5056227;28;20617;-64
2021/04/23 03:48:53;;;;;;;9.48;4.00;;;6.60;1.00;;;;;;5055542;28;20582;-64
2021/04/23 03:51:19;;;;;;;13.70;4.68;;;6.60;1.00;;;;;;5055806;28;20260;-63
2021/04/23 03:53:47;;;;;;;6.55;3.83;;;6.60;1.00;;;;;;5055342;28;20185;-64
2021/04/23 03:56:14;;;;;;;10.63;3.83;;;6.40;1.00;;;;;;5055488;28;20173;-63
2021/04/23 03:58:40;;;;;;;7.85;3.72;;;6.30;99.90;;;;;;5054623;28;20184;-63
2021/04/23 04:01:10;;;;;;;10.40;3.85;;;6.40;99.90;;;;;;5055485;28;20601;-63
2021/04/23 04:03:39;;;;;;;9.45;4.07;;;6.50;99.90;;;;;;5055294;28;20188;-63
2021/04/23 04:06:06;;;;;;;14.52;5.22;;;6.50;99.90;;;;;;5055257;28;20693;-64
2021/04/23 04:08:31;;;;;;;8.63;3.40;;;6.60;99.90;;;;;;5055382;28;20188;-63
2021/04/23 04:10:58;;;;;;;10.80;4.30;;;6.50;1.00;;;;;;5055262;28;20631;-63
2021/04/23 04:13:24;;;;;;;5.85;3.38;;;6.50;1.00;;;;;;5055184;28;21127;-64
2021/04/23 04:15:49;;;;;;;9.23;3.00;;;6.50;1.00;;;;;;5054992;28;20268;-64
2021/04/23 04:18:16;;;;;;;5.60;2.67;;;6.50;99.90;;;;;;5055267;28;20223;-64
2021/04/23 04:20:44;;;;;;;11.65;3.75;;;6.50;15.40;;;;;;5054128;28;20196;-64
2021/04/23 04:23:14;;;;;;;12.85;3.20;;;6.60;1.00;;;;;;5055348;28;20315;-64
2021/04/23 04:25:44;;;;;;;9.27;3.05;;;6.60;1.00;;;;;;5054478;28;20223;-63
2021/04/23 04:28:10;;;;;;;4.88;2.58;;;6.60;94.40;;;;;;5055534;28;20523;-63
2021/04/23 04:30:37;;;;;;;6.15;1.70;;;6.50;99.90;;;;;;5055188;28;20178;-64
2021/04/23 04:33:03;;;;;;;6.85;2.47;;;6.50;1.00;;;;;;5054956;28;20193;-63
2021/04/23 04:35:29;;;;;;;8.00;4.07;;;6.50;1.00;;;;;;5054577;28;20201;-63
2021/04/23 04:37:56;;;;;;;7.37;2.60;;;6.50;99.90;;;;;;5053886;28;20637;-65
2021/04/23 04:40:23;;;;;;;6.60;2.60;;;6.70;25.70;;;;;;5054987;28;20507;-63
2021/04/23 04:42:49;;;;;;;5.53;2.15;;;6.60;1.00;;;;;;5053554;28;20212;-63
2021/04/23 04:45:17;;;;;;;7.05;2.05;;;6.70;99.90;;;;;;5053612;28;20243;-64
2021/04/23 04:47:44;;;;;;;5.10;2.53;;;6.80;40.90;;;;;;5054444;28;20177;-63
2021/04/23 04:50:13;;;;;;;7.43;2.00;;;6.70;1.00;;;;;;5054674;28;20184;-63
2021/04/23 04:52:39;;;;;;;5.32;2.03;;;6.70;1.00;;;;;;5054579;28;20212;-63
2021/04/23 04:55:07;;;;;;;6.72;2.35;;;6.80;99.90;;;;;;5053968;28;20614;-63
2021/04/23 04:57:34;;;;;;;5.72;2.65;;;6.80;99.90;;;;;;5054470;28;20185;-63
2021/04/23 04:59:59;;;;;;;3.42;2.25;;;6.90;1.00;;;;;;5054581;28;20182;-63
2021/04/23 05:02:25;;;;;;;9.60;3.50;;;6.90;99.90;;;;;;5054039;28;20200;-63
2021/04/23 05:04:51;;;;;;;7.50;2.10;;;7.10;1.00;;;;;;5054073;28;20556;-63
2021/04/23 05:07:17;;;;;;;11.10;2.20;;;7.90;1.00;;;;;;5054360;28;20566;-64
2021/04/23 05:09:42;;;;;;;3.30;2.10;;;9.00;99.90;;;;;;5054164;28;20239;-63
2021/04/23 05:12:08;;;;;;;5.20;2.10;;;9.20;1.00;;;;;;5053404;28;20430;-63
2021/04/23 05:14:33;;;;;;;11.33;2.57;;;9.60;1.00;;;;;;5053523;28;20187;-63
2021/04/23 05:16:59;;;;;;;6.00;2.13;;;9.20;1.00;;;;;;5053079;28;20211;-64
2021/04/23 05:19:25;;;;;;;10.40;2.67;;;9.20;1.00;;;;;;5053981;28;20637;-64
2021/04/23 05:21:50;;;;;;;7.30;2.37;;;8.80;1.00;;;;;;5054138;28;20246;-64
2021/04/23 05:24:16;;;;;;;8.10;2.00;;;8.90;1.00;;;;;;5052450;28;20237;-64
2021/04/23 05:26:42;;;;;;;4.83;2.40;;;9.30;1.00;;;;;;5054252;28;20188;-64
2021/04/23 05:29:11;;;;;;;7.00;2.57;;;9.20;1.00;;;;;;5053550;28;20189;-64
2021/04/23 05:31:36;;;;;;;6.85;2.03;;;8.80;1.00;;;;;;5052718;28;20473;-64
2021/04/23 05:34:03;;;;;;;7.97;2.30;;;8.40;99.90;;;;;;5053450;28;20621;-64
2021/04/23 05:36:29;;;;;;;7.63;2.65;;;8.30;99.90;;;;;;5053705;28;20201;-64
2021/04/23 05:38:54;;;;;;;8.17;2.17;;;7.80;1.00;;;;;;5053670;28;20266;-64
2021/04/23 05:41:20;;;;;;;7.20;1.90;;;7.60;1.00;;;;;;5053491;28;20202;-64
2021/04/23 05:43:47;;;;;;;7.67;2.10;;;8.10;99.90;;;;;;5053365;28;20179;-64
2021/04/23 05:46:16;;;;;;;6.13;2.20;;;8.50;91.40;;;;;;5053292;28;20177;-64
2021/04/23 05:48:42;;;;;;;8.10;2.30;;;8.60;1.00;;;;;;5053814;28;20200;-63
2021/04/23 05:51:08;;;;;;;5.75;2.45;;;8.20;99.90;;;;;;5053368;28;20192;-64
2021/04/23 05:53:33;;;;;;;9.60;2.67;;;8.40;99.90;;;;;;5053102;28;20177;-63
2021/04/23 05:55:59;;;;;;;5.20;1.70;;;8.60;99.90;;;;;;5052947;28;20191;-64
2021/04/23 05:58:25;;;;;;;9.80;2.13;;;8.70;1.00;;;;;;5053514;28;20313;-64
2021/04/23 06:00:52;;;;;;;7.90;2.20;;;8.10;99.90;;;;;;5053244;28;20632;-63
2021/04/23 06:03:18;;;;;;;5.05;1.80;;;8.60;1.00;;;;;;5053554;28;20176;-63
2021/04/23 06:05:43;;;;;;;13.80;2.83;;;8.50;1.00;;;;;;5053005;28;20197;-63
2021/04/23 06:08:11;;;;;;;6.27;2.13;;;8.70;1.00;;;;;;5051873;28;20266;-63
2021/04/23 06:10:38;;;;;;;7.65;2.45;;;9.10;1.00;;;;;;5053275;28;20180;-63
2021/04/23 06:13:04;;;;;;;8.15;2.60;;;10.20;99.90;;;;;;5052962;28;20177;-63
2021/04/23 06:15:30;;;;;;;8.60;2.90;;;10.60;99.90;;;;;;5052586;28;20185;-63
2021/04/23 06:17:57;;;;;;;3.35;1.02;;;10.20;99.90;;;;;;5052115;28;20188;-64
2021/04/23 06:20:26;;;;;;;13.27;2.45;;;9.80;99.90;;;;;;5052882;28;20613;-65
2021/04/23 06:22:52;;;;;;;5.80;2.17;;;9.10;1.00;;;;;;5052620;28;20215;-64
2021/04/23 06:25:19;;;;;;;5.40;1.70;;;8.70;1.00;;;;;;5051588;28;20569;-64
2021/04/23 06:27:46;;;;;;;15.30;2.88;;;8.50;1.00;;;;;;5052890;28;20425;-64
2021/04/23 06:30:15;;;;;;;8.68;2.70;;;8.90;1.00;;;;;;5052890;28;20176;-64
2021/04/23 06:32:43;;;;;;;9.27;2.25;;;9.60;99.90;;;;;;5052731;28;20179;-65
2021/04/23 06:35:12;;;;;;;5.55;2.72;;;10.00;99.90;;;;;;5052250;28;20625;-64
2021/04/23 06:37:37;;;;;;;10.20;2.78;;;9.60;1.00;;;;;;5052638;28;20184;-65
2021/04/23 06:40:05;;;;;;;5.70;1.83;;;9.60;1.00;;;;;;5052623;28;20267;-65
2021/04/23 06:42:34;;;;;;;7.05;2.58;;;10.50;99.90;;;;;;5052593;28;20197;-65
2021/04/23 06:45:00;;;;;;;4.65;1.55;;;11.60;67.30;;;;;;5052242;28;20173;-65
2021/04/23 06:47:35;;;;;;;5.75;2.83;;;11.20;20.60;;;;;;5053083;28;20281;-64
2021/04/23 06:50:06;;;;;;;9.55;2.30;;;10.70;99.90;;;;;;5055449;28;20233;-64
2021/04/23 06:52:32;;;;;;;5.20;2.38;;;10.70;99.90;;;;;;5054136;28;20222;-64
2021/04/23 06:55:02;;;;;;;10.38;2.65;;;10.30;99.90;;;;;;5074135;28;20214;-64
2021/04/23 06:57:28;;;;;;;6.00;1.80;;;9.40;1.00;;;;;;5074757;28;20210;-64
2021/04/23 07:00:12;;;;;;;9.67;2.50;;;9.70;99.90;;;;;;5067529;28;20577;-64
2021/04/23 07:02:38;;;;;;;9.55;2.40;;;9.50;1.00;;;;;;5052827;28;20497;-64
2021/04/23 07:05:05;;;;;;;4.83;1.70;;;9.80;99.90;;;;;;5052087;28;20215;-64
2021/04/23 07:07:31;;;;;;;10.30;3.03;;;9.20;1.00;;;;;;5053588;28;20254;-64
2021/04/23 07:09:57;;;;;;;5.88;2.20;;;9.40;99.90;;;;;;5058511;28;20288;-65
2021/04/23 07:12:22;;;;;;;5.23;1.43;;;9.20;1.00;;;;;;5046364;28;20195;-67
2021/04/23 07:14:48;;;;;;;7.43;2.80;;;9.60;99.90;;;;;;5048362;28;20245;-65
2021/04/23 07:17:14;;;;;;;5.00;1.87;;;9.20;1.00;;;;;;5052114;28;20571;-65
2021/04/23 07:19:39;;;;;;;12.03;2.63;;;9.20;1.00;;;;;;5051426;28;20203;-65
2021/04/23 07:22:05;;;;;;;7.63;2.30;;;9.40;1.00;;;;;;5051237;28;20212;-64
2021/04/23 07:24:32;;;;;;;6.68;1.80;;;9.10;99.90;;;;;;5052636;28;20189;-67
2021/04/23 07:26:58;;;;;;;6.88;2.22;;;9.30;99.90;;;;;;5055660;28;20180;-65
2021/04/23 07:29:24;;;;;;;7.47;2.67;;;9.10;99.90;;;;;;5051881;28;20206;-65
2021/04/23 07:31:49;;;;;;;11.13;2.70;;;8.80;1.00;;;;;;5052148;28;20188;-65
2021/04/23 07:34:16;;;;;;;5.60;3.00;;;8.90;1.00;;;;;;5052222;28;20624;-65
2021/04/23 07:36:41;;;;;;;9.98;2.40;;;8.80;1.00;;;;;;5052828;28;20193;-66
2021/04/23 07:39:10;;;;;;;9.57;2.20;;;8.70;1.00;;;;;;5056554;28;20184;-63
2021/04/23 07:41:38;;;;;;;7.00;2.65;;;9.00;1.00;;;;;;5054748;28;20204;-66
2021/04/23 07:44:04;;;;;;;7.38;2.10;;;9.20;1.00;;;;;;5055320;28;20506;-64
2021/04/23 07:46:30;;;;;;;7.27;2.30;;;9.40;99.90;;;;;;5055897;28;20183;-63
2021/04/23 07:48:56;;;;;;;4.85;2.88;;;9.20;99.90;;;;;;5055458;28;20474;-63
2021/04/23 07:51:21;;;;;;;8.13;2.60;;;9.00;99.90;;;;;;5054705;28;20219;-63
2021/04/23 07:53:47;;;;;;;3.57;2.30;;;9.20;99.90;;;;;;5055346;28;20179;-63
2021/04/23 07:56:12;;;;;;;5.60;2.37;;;9.20;99.90;;;;;;5055787;28;20215;-64
2021/04/23 07:58:38;;;;;;;10.43;2.90;;;9.10;99.90;;;;;;5055652;28;20302;-64
2021/04/23 08:01:03;;;;;;;6.77;2.70;;;9.20;99.90;;;;;;5075488;28;20207;-65
2021/04/23 08:03:33;;;;;;;8.27;2.50;;;9.40;99.90;;;;;;5075845;28;20180;-65
2021/04/23 08:05:59;;;;;;;8.80;1.92;;;9.30;99.90;;;;;;5075456;28;20191;-64
2021/04/23 08:08:25;;;;;;;5.85;2.03;;;9.20;99.90;;;;;;5075683;28;20195;-64
2021/04/23 08:10:51;;;;;;;8.70;3.20;;;9.40;99.90;;;;;;5075364;28;20186;-64
2021/04/23 08:13:16;;;;;;;5.00;1.90;;;9.40;99.90;;;;;;5062404;28;20202;-65
2021/04/23 08:15:42;;;;;;;18.37;2.87;;;9.30;99.90;;;;;;5055231;28;20270;-65
2021/04/23 08:18:08;;;;;;;5.23;2.23;;;9.10;99.90;;;;;;5055076;28;20516;-62
2021/04/23 08:20:34;;;;;;;6.90;2.53;;;9.50;99.90;;;;;;5055324;28;20353;-67
2021/04/23 08:23:00;;;;;;;13.50;3.22;;;9.70;50.60;;;;;;5054761;28;20228;-66
2021/04/23 08:25:26;;;;;;;6.00;2.28;;;9.90;51.60;;;;;;5054564;28;20176;-65
2021/04/23 08:27:52;;;;;;;4.13;1.83;;;9.50;40.20;;;;;;5054900;28;20516;-65
2021/04/23 08:30:20;;;;;;;6.53;1.90;;;9.20;99.90;;;;;;5054853;28;20538;-64
2021/04/23 08:32:46;;;;;;;7.95;2.20;;;9.20;99.90;;;;;;5054454;28;20184;-64
2021/04/23 08:35:12;;;;;;;6.00;2.13;;;9.60;99.90;;;;;;5054577;28;20841;-65
2021/04/23 08:37:39;;;;;;;5.63;1.88;;;9.70;1.50;;;;;;5054732;28;20191;-64
2021/04/23 08:40:07;;;;;;;8.50;1.90;;;9.50;14.60;;;;;;5053690;28;20250;-65
2021/04/23 08:42:33;;;;;;;13.63;2.75;;;9.50;20.00;;;;;;5054331;28;20212;-64
2021/04/23 08:44:59;;;;;;;8.20;1.77;;;9.80;1.00;;;;;;5054667;28;20184;-63
2021/04/23 08:47:25;;;;;;;10.10;1.80;;;9.70;5.40;;;;;;5054694;28;20271;-64
2021/04/23 08:49:56;;;;;;;4.97;2.03;;;9.70;20.70;;;;;;5053954;28;20450;-64
2021/04/23 08:52:22;;;;;;;5.07;2.05;;;9.80;1.00;;;;;;5054464;28;20181;-62
2021/04/23 08:54:47;;;;;;;5.22;1.85;;;9.60;47.50;;;;;;5053949;28;20264;-62
2021/04/23 08:57:13;;;;;;;8.17;2.10;;;9.90;4.40;;;;;;5054024;28;20212;-62
2021/04/23 08:59:39;;;;;;;5.27;1.53;;;10.00;1.00;;;;;;5055023;28;20272;-62
2021/04/23 09:02:04;;;;;;;7.70;2.30;;;9.70;30.00;;;;;;5054300;28;20703;-62
2021/04/23 09:04:30;;;;;;;5.80;1.50;;;10.00;18.70;;;;;;5048444;28;20253;-62
2021/04/23 09:07:01;;;;;;;4.70;1.73;;;10.00;1.00;;;;;;5036810;28;20181;-62
2021/04/23 09:09:44;;;;;;;10.30;2.17;;;10.30;1.00;;;;;;5045189;28;20589;-62
2021/04/23 09:12:16;;;;;;;5.43;1.88;;;9.90;8.50;;;;;;5052947;28;20181;-63
2021/04/23 09:14:42;;;;;;;5.22;2.50;;;10.00;1.00;;;;;;5053336;28;20407;-64
2021/04/23 09:17:07;;;;;;;6.93;2.40;;;9.80;10.50;;;;;;5054422;28;20205;-65
2021/04/23 09:19:35;;;;;;;3.37;1.50;;;9.90;7.70;;;;;;5054374;28;20443;-64
2021/04/23 09:22:06;;;;;;;9.02;2.97;;;10.10;1.00;;;;;;5053805;28;20641;-64
2021/04/23 09:24:43;;;;;;;5.15;2.60;;;10.40;1.00;;;;;;5053731;28;20173;-65
2021/04/23 09:27:08;;;;;;;4.30;2.05;;;10.30;1.00;;;;;;5053843;28;20194;-62
2021/04/23 09:29:36;;;;;;;9.07;3.03;;;10.30;1.00;;;;;;5052763;28;20174;-64
2021/04/23 09:32:12;;;;;;;6.00;2.05;;;10.40;1.00;;;;;;5053775;28;20589;-63
2021/04/23 09:35:02;;;;;;;5.85;1.77;;;10.40;1.00;;;;;;5041698;28;20192;-63
2021/04/23 09:37:42;;;;;;;6.90;2.10;;;10.60;1.00;;;;;;5040478;28;20189;-61
2021/04/23 09:40:11;;;;;;;5.90;2.40;;;10.40;1.00;;;;;;5048591;28;20185;-62
2021/04/23 09:42:58;;;;;;;7.00;2.33;;;10.50;1.00;;;;;;5053800;28;20205;-62
2021/04/23 09:45:26;;;;;;;6.50;2.70;;;10.70;1.00;;;;;;5053713;28;20172;-62
2021/04/23 09:47:53;;;;;;;2.75;1.65;;;10.50;1.00;;;;;;5053897;28;20235;-63
2021/04/23 09:50:19;;;;;;;3.28;1.83;;;10.30;1.00;;;;;;5042445;28;20178;-64
2021/04/23 09:52:48;;;;;;;6.55;2.60;;;10.40;1.00;;;;;;5049036;28;20187;-64
2021/04/23 09:55:15;;;;;;;10.02;2.83;;;10.60;1.00;;;;;;5033579;28;20549;-64
2021/04/23 09:57:51;;;;;;;4.85;2.15;;;11.10;1.00;;;;;;5034701;28;20212;-63
2021/04/23 10:00:19;;;;;;;8.95;2.38;;;10.90;1.00;;;;;;5048213;28;20573;-63
2021/04/23 10:02:49;;;;;;;8.82;4.10;;;10.90;1.00;;;;;;5051410;28;20585;-63
2021/04/23 10:05:37;;;;;;;5.78;2.20;;;10.70;1.00;;;;;;5052623;28;20195;-63
2021/04/23 10:08:08;;;;;;;6.10;2.47;;;10.70;1.00;;;;;;5053394;28;20181;-63
2021/04/23 10:10:34;;;;;;;6.35;2.05;;;10.50;1.00;;;;;;5052727;28;20184;-64
2021/04/23 10:13:03;;;;;;;5.20;2.57;;;10.80;1.00;;;;;;5045682;28;20200;-63
2021/04/23 10:15:36;;;;;;;7.10;1.88;;;11.00;1.00;;;;;;5032841;28;20424;-63
2021/04/23 10:18:09;;;;;;;6.68;3.22;;;10.80;1.00;;;;;;5032688;28;20649;-64
2021/04/23 10:20:41;;;;;;;7.90;2.60;;;10.80;1.00;;;;;;5033854;28;20189;-64
2021/04/23 10:23:11;;;;;;;9.00;2.58;;;11.20;1.00;;;;;;5032479;28;20247;-64
2021/04/23 10:25:38;;;;;;;10.40;1.92;;;11.40;1.00;;;;;;5032316;28;20181;-64
2021/04/23 10:28:08;;;;;;;4.00;2.45;;;11.20;1.00;;;;;;5032681;28;20185;-64
2021/04/23 10:30:36;;;;;;;6.75;3.08;;;11.00;1.00;;;;;;5033239;28;20216;-64
2021/04/23 10:33:04;;;;;;;6.50;2.50;;;10.90;1.00;;;;;;5032472;28;20174;-65
2021/04/23 10:35:30;;;;;;;5.50;2.13;;;11.20;1.00;;;;;;5032426;28;20201;-65
2021/04/23 10:38:10;;;;;;;7.07;2.97;;;11.00;1.00;;;;;;5032769;28;20182;-65
2021/04/23 10:40:41;;;;;;;7.13;2.35;;;11.00;1.00;;;;;;5032835;28;20196;-65
2021/04/23 10:43:18;;;;;;;8.73;3.10;;;11.50;1.00;;;;;;5032550;28;20205;-65
2021/04/23 10:45:47;;;;;;;6.70;1.95;;;11.40;1.00;;;;;;5032806;28;20273;-65
2021/04/23 10:48:12;;;;;;;9.43;2.45;;;11.20;1.00;;;;;;5031759;28;20213;-65
2021/04/23 10:50:50;;;;;;;14.33;3.83;;;11.60;1.00;;;;;;5032330;28;20212;-65
2021/04/23 10:53:25;;;;;;;8.27;2.60;;;11.60;1.00;;;;;;5032296;28;20506;-65
2021/04/23 10:56:00;;;;;;;8.13;2.30;;;11.90;1.00;;;;;;5032019;28;20195;-64
2021/04/23 10:58:26;;;;;;;9.05;2.47;;;11.80;1.00;;;;;;5032159;28;20188;-64
2021/04/23 11:00:53;;;;;;;6.43;2.33;;;11.60;1.00;;;;;;5051040;28;20684;-64
2021/04/23 11:03:33;;;;;;;8.60;2.30;;;11.40;1.00;;;;;;5034553;28;20488;-64
2021/04/23 11:06:02;;;;;;;7.13;2.00;;;11.30;1.00;;;;;;5052474;28;20257;-65
2021/04/23 11:08:29;;;;;;;7.72;2.83;;;11.40;1.00;;;;;;5052038;28;20257;-66
2021/04/23 11:11:01;;;;;;;8.40;2.92;;;11.00;1.00;;;;;;5052060;28;20188;-65
2021/04/23 11:13:29;;;;;;;8.88;2.75;;;11.70;1.00;;;;;;5044484;28;20638;-65
2021/04/23 11:16:19;;;;;;;8.80;2.42;;;12.00;1.00;;;;;;5036011;28;20633;-65
2021/04/23 11:18:54;;;;;;;10.93;2.83;;;11.90;1.00;;;;;;5036361;28;20181;-65
2021/04/23 11:21:34;;;;;;;5.57;2.47;;;11.80;1.00;;;;;;5036372;28;20528;-67
2021/04/23 11:24:22;;;;;;;6.22;2.55;;;11.30;1.00;;;;;;5035624;28;20177;-65
2021/04/23 11:26:54;;;;;;;8.05;2.55;;;11.30;1.00;;;;;;5035416;28;20255;-64
2021/04/23 11:29:28;;;;;;;7.47;2.17;;;11.50;1.00;;;;;;5050421;28;20203;-64
2021/04/23 11:32:14;;;;;;;8.20;2.85;;;11.70;1.00;;;;;;5052416;28;20194;-65
2021/04/23 11:34:50;;;;;;;10.68;2.78;;;11.60;1.00;;;;;;5056252;28;20636;-64
2021/04/23 11:37:21;;;;;;;8.65;2.30;;;11.90;1.00;;;;;;5056513;28;20215;-65
2021/04/23 11:39:51;;;;;;;9.32;2.55;;;11.70;1.00;;;;;;5055114;28;20180;-66
2021/04/23 11:42:25;;;;;;;8.85;3.05;;;11.80;1.00;;;;;;5056192;28;20286;-64
2021/04/23 11:44:55;;;;;;;8.35;2.75;;;11.80;1.00;;;;;;5056012;28;20183;-64
2021/04/23 11:47:30;;;;;;;5.72;2.70;;;11.70;1.00;;;;;;5056426;28;20263;-65
2021/04/23 11:50:16;;;;;;;6.07;2.58;;;11.30;1.00;;;;;;5056287;28;20180;-64
2021/04/23 11:52:50;;;;;;;4.75;2.65;;;11.60;1.00;;;;;;5056395;28;20656;-64
2021/04/23 11:55:21;;;;;;;8.10;2.78;;;11.80;1.00;;;;;;5048368;28;20277;-65
2021/04/23 11:57:50;;;;;;;7.93;2.33;;;11.70;1.00;;;;;;5056170;28;20613;-67
2021/04/23 12:00:22;;;;;;;7.55;2.58;;;11.50;1.00;;;;;;5070147;28;20193;-70
2021/04/23 12:02:54;;;;;;;8.25;2.22;;;11.90;1.00;;;;;;5075842;28;20208;-65
2021/04/23 12:05:21;;;;;;;7.93;2.92;;;12.40;1.00;;;;;;5059745;28;20203;-65
2021/04/23 12:07:47;;;;;;;8.05;2.10;;;12.00;1.00;;;;;;5050221;28;20197;-65
2021/04/23 12:10:14;;;;;;;8.70;2.67;;;12.20;1.00;;;;;;5055530;28;20199;-66
2021/04/23 12:12:46;;;;;;;7.45;2.42;;;12.40;1.00;;;;;;5054413;28;20913;-65
2021/04/23 12:15:23;;;;;;;7.40;2.83;;;12.30;1.00;;;;;;5055182;28;20227;-65
2021/04/23 12:17:49;;;;;;;8.15;2.75;;;12.00;1.00;;;;;;5054640;28;20356;-66
2021/04/23 12:20:23;;;;;;;3.13;1.90;;;11.90;1.00;;;;;;5055082;28;20184;-67
2021/04/23 12:22:49;;;;;;;6.80;2.15;;;11.60;1.00;;;;;;5053789;28;20208;-68
2021/04/23 12:25:30;;;;;;;8.13;2.22;;;11.90;1.00;;;;;;5054207;28;20193;-66
2021/04/23 12:28:24;;;;;;;4.53;1.85;;;11.60;1.00;;;;;;5054353;28;20560;-66
2021/04/23 12:30:53;;;;;;;4.30;2.20;;;12.00;1.00;;;;;;5054499;28;20173;-65
2021/04/23 12:33:19;;;;;;;7.82;2.67;;;12.40;1.00;;;;;;5054380;28;20255;-65
2021/04/23 12:35:48;;;;;;;6.88;2.40;;;12.50;1.00;;;;;;5054200;28;20640;-65
2021/04/23 12:38:16;;;;;;;7.38;2.25;;;12.50;1.00;;;;;;5054573;28;20248;-63
2021/04/23 12:40:46;;;;;;;9.13;3.53;;;11.80;1.00;;;;;;5054336;28;20181;-63
2021/04/23 12:43:12;;;;;;;6.75;1.85;;;11.70;1.00;;;;;;5054170;28;20243;-63
2021/04/23 12:45:47;;;;;;;6.87;1.90;;;12.10;1.00;;;;;;5054203;28;20179;-63
2021/04/23 12:48:13;;;;;;;3.53;1.35;;;12.40;1.00;;;;;;5054461;28;20178;-63
2021/04/23 12:50:40;;;;;;;4.47;1.45;;;11.90;1.00;;;;;;5054296;28;20180;-64
2021/04/23 12:53:07;;;;;;;4.55;1.33;;;11.90;1.00;;;;;;5054991;28;20290;-64
2021/04/23 12:55:33;;;;;;;8.85;2.03;;;12.00;1.00;;;;;;5053989;28;20379;-63
2021/04/23 12:57:59;;;;;;;2.20;1.43;;;11.90;1.00;;;;;;5054813;28;20268;-65
2021/04/23 13:00:30;;;;;;;4.22;1.88;;;11.60;1.00;;;;;;5054487;28;20449;-66
2021/04/23 13:02:57;;;;;;;6.55;2.28;;;11.60;1.00;;;;;;5053404;28;20235;-66
2021/04/23 13:05:23;;;;;;;2.95;1.40;;;12.00;1.00;;;;;;5053966;28;20652;-68
2021/04/23 13:07:53;;;;;;;6.97;2.33;;;12.10;1.00;;;;;;5054065;28;20227;-66